Time;durP1;ratioP1;P1;durP2;ratioP2;P2;SDS_P1;SDS_P2;PMS_P1;PMS_P2;Temp;Humidity;BMP_temperature;BMP_pressure;BME280_temperature;BME280_humidity;BME280_pressure;Samples;Min_cycle;Max_cycle;Signal;HPM_P1;HPM_P2
2021/07/11 00:02:08;;;;;;;2.42;2.25;;;23.20;92.50;;;;;;5051059;28;20060;-77
2021/07/11 00:04:34;;;;;;;2.75;2.53;;;23.30;92.30;;;;;;5051292;28;20025;-76
2021/07/11 00:07:00;;;;;;;2.33;2.22;;;23.40;92.30;;;;;;5051283;28;20415;-77
2021/07/11 00:09:26;;;;;;;2.63;2.08;;;23.40;92.20;;;;;;5051159;28;20260;-77
2021/07/11 00:11:52;;;;;;;2.50;2.22;;;23.40;92.10;;;;;;5050689;28;20072;-76
2021/07/11 00:14:18;;;;;;;2.13;2.03;;;23.40;92.40;;;;;;5051133;28;20037;-76
2021/07/11 00:16:43;;;;;;;3.30;2.15;;;23.40;92.70;;;;;;5051089;28;20088;-77
2021/07/11 00:19:09;;;;;;;2.90;2.50;;;23.30;92.70;;;;;;5051208;28;20024;-76
2021/07/11 00:21:35;;;;;;;2.40;2.30;;;23.40;92.80;;;;;;5051397;28;20021;-77
2021/07/11 00:24:44;;;;;;;2.50;2.40;;;23.20;93.00;;;;;;5053791;28;20025;-76
2021/07/11 00:27:10;;;;;;;2.15;1.98;;;23.20;93.30;;;;;;5052118;28;20021;-77
2021/07/11 00:29:36;;;;;;;2.40;2.30;;;23.10;93.50;;;;;;5054936;28;20100;-76
2021/07/11 00:32:02;;;;;;;2.60;1.95;;;23.10;93.80;;;;;;5038496;28;20025;-76
2021/07/11 00:34:28;;;;;;;2.33;2.22;;;23.10;93.80;;;;;;5056193;28;20036;-76
2021/07/11 00:36:54;;;;;;;2.45;2.25;;;23.10;94.00;;;;;;5038264;28;20070;-76
2021/07/11 00:39:20;;;;;;;5.43;1.88;;;23.10;94.00;;;;;;5054817;28;20053;-77
2021/07/11 00:41:46;;;;;;;2.08;1.98;;;23.00;94.00;;;;;;5054918;28;20032;-76
2021/07/11 00:44:12;;;;;;;2.35;2.20;;;23.10;94.10;;;;;;5054693;28;20025;-76
2021/07/11 00:46:38;;;;;;;3.95;2.53;;;23.10;94.10;;;;;;5054610;28;20021;-76
2021/07/11 00:49:05;;;;;;;2.30;2.10;;;23.10;94.20;;;;;;5036815;28;20082;-76
2021/07/11 00:51:33;;;;;;;4.93;2.45;;;23.20;94.20;;;;;;5054404;28;20025;-76
2021/07/11 00:53:58;;;;;;;4.07;2.00;;;23.20;94.20;;;;;;5054428;28;20048;-76
2021/07/11 00:56:24;;;;;;;2.50;2.22;;;23.20;94.20;;;;;;5054436;28;20025;-76
2021/07/11 00:58:50;;;;;;;2.25;2.15;;;23.20;94.20;;;;;;5054349;28;20053;-76
2021/07/11 01:01:26;;;;;;;4.00;2.47;;;23.20;94.40;;;;;;5054042;28;20099;-76
2021/07/11 01:03:57;;;;;;;2.67;2.03;;;23.20;94.40;;;;;;5065508;28;20013;-76
2021/07/11 01:06:24;;;;;;;3.90;1.93;;;23.40;92.60;;;;;;5074210;28;20028;-76
2021/07/11 01:08:57;;;;;;;4.38;2.33;;;23.60;92.00;;;;;;5055620;28;20028;-76
2021/07/11 01:11:25;;;;;;;4.43;2.55;;;23.70;92.20;;;;;;5054278;28;20059;-75
2021/07/11 01:13:56;;;;;;;4.53;3.42;;;23.50;96.40;;;;;;5054239;28;20563;-77
2021/07/11 01:16:29;;;;;;;3.58;2.97;;;22.90;99.90;;;;;;5036051;28;20025;-79
2021/07/11 01:19:05;;;;;;;4.93;2.13;;;22.50;99.90;;;;;;5036141;28;20472;-83
2021/07/11 01:21:35;;;;;;;6.15;2.72;;;22.20;99.90;;;;;;5036074;28;20024;-84
2021/07/11 01:24:24;;;;;;;3.83;2.38;;;21.90;99.90;;;;;;5036062;28;20109;-83
2021/07/11 01:26:50;;;;;;;3.00;2.72;;;21.70;99.90;;;;;;5054022;28;20017;-82
2021/07/11 01:29:21;;;;;;;3.42;3.08;;;21.70;99.90;;;;;;5036035;28;20123;-83
2021/07/11 01:31:47;;;;;;;3.90;3.47;;;21.70;99.90;;;;;;5054931;28;20021;-83
2021/07/11 01:34:14;;;;;;;3.40;3.08;;;21.90;99.90;;;;;;5036922;28;20033;-83
2021/07/11 01:36:41;;;;;;;4.35;3.63;;;22.00;99.90;;;;;;5054780;28;20063;-83
2021/07/11 01:39:08;;;;;;;3.53;3.22;;;22.00;99.90;;;;;;5054350;28;20045;-83
2021/07/11 01:41:34;;;;;;;4.57;3.63;;;22.10;99.90;;;;;;5036908;28;20059;-82
2021/07/11 01:44:00;;;;;;;4.25;3.38;;;22.10;99.90;;;;;;5037013;28;20029;-82
2021/07/11 01:46:27;;;;;;;5.75;3.65;;;22.00;99.90;;;;;;5054511;28;20017;-82
2021/07/11 01:48:53;;;;;;;3.75;3.20;;;22.00;99.90;;;;;;5036936;28;20093;-82
2021/07/11 01:51:23;;;;;;;4.53;3.65;;;22.00;99.90;;;;;;5036681;28;20028;-82
2021/07/11 01:53:51;;;;;;;9.75;4.00;;;21.80;99.90;;;;;;5035748;28;20450;-82
2021/07/11 01:56:18;;;;;;;3.97;3.67;;;21.90;99.90;;;;;;5035537;28;20025;-82
2021/07/11 01:58:44;;;;;;;6.20;3.85;;;21.80;99.90;;;;;;5035751;28;20098;-82
2021/07/11 02:01:14;;;;;;;6.43;4.28;;;21.80;99.90;;;;;;5053476;28;20100;-83
2021/07/11 02:03:41;;;;;;;5.57;3.35;;;21.90;99.90;;;;;;5053563;28;20115;-83
2021/07/11 02:06:08;;;;;;;4.28;3.47;;;21.80;99.90;;;;;;5035561;28;20054;-83
2021/07/11 02:08:36;;;;;;;3.70;3.40;;;21.90;99.90;;;;;;5035425;28;20025;-83
2021/07/11 02:11:03;;;;;;;4.10;3.70;;;21.90;99.90;;;;;;5053084;28;20032;-82
2021/07/11 02:13:51;;;;;;;8.35;3.85;;;21.80;99.90;;;;;;5035418;28;20365;-82
2021/07/11 02:16:32;;;;;;;6.50;3.70;;;21.80;99.90;;;;;;5034947;28;20036;-82
2021/07/11 02:18:59;;;;;;;3.80;3.50;;;21.90;99.90;;;;;;5053021;28;20017;-82
2021/07/11 02:21:27;;;;;;;4.65;4.20;;;22.00;99.90;;;;;;5035113;28;20028;-82
2021/07/11 02:23:53;;;;;;;4.80;3.78;;;21.90;99.90;;;;;;5052898;28;20032;-82
2021/07/11 02:26:21;;;;;;;7.43;4.07;;;21.70;99.90;;;;;;5052887;28;20543;-82
2021/07/11 02:28:50;;;;;;;5.35;3.97;;;21.60;99.90;;;;;;5035121;28;20021;-82
2021/07/11 02:31:17;;;;;;;7.05;4.68;;;21.50;99.90;;;;;;5052722;28;20033;-82
2021/07/11 02:33:44;;;;;;;4.88;4.03;;;21.40;99.90;;;;;;5034612;28;20036;-82
2021/07/11 02:36:38;;;;;;;4.80;4.45;;;21.40;99.90;;;;;;5034677;28;20421;-82
2021/07/11 02:39:14;;;;;;;4.20;3.90;;;21.40;99.90;;;;;;5032413;28;20094;-82
2021/07/11 02:41:45;;;;;;;5.15;3.83;;;21.30;99.90;;;;;;5034552;28;20024;-82
2021/07/11 02:44:13;;;;;;;3.75;3.53;;;21.30;99.90;;;;;;5052483;28;20049;-82
2021/07/11 02:46:41;;;;;;;4.30;3.90;;;21.30;99.90;;;;;;5034248;28;20025;-83
2021/07/11 02:49:13;;;;;;;4.20;3.90;;;21.30;99.90;;;;;;5052489;28;20021;-83
2021/07/11 02:51:42;;;;;;;5.47;3.90;;;21.30;99.90;;;;;;5033679;28;20086;-83
2021/07/11 02:54:13;;;;;;;6.07;3.92;;;21.30;99.90;;;;;;5052157;28;20403;-84
2021/07/11 02:56:41;;;;;;;4.35;3.70;;;21.30;99.90;;;;;;5034336;28;20087;-83
2021/07/11 02:59:09;;;;;;;4.07;3.60;;;21.30;99.90;;;;;;5034454;28;20016;-83
2021/07/11 03:01:36;;;;;;;3.38;3.08;;;21.30;99.90;;;;;;5033875;28;20059;-82
2021/07/11 03:04:03;;;;;;;4.38;3.50;;;21.20;99.90;;;;;;5048573;28;20029;-83
2021/07/11 03:06:33;;;;;;;4.57;3.60;;;21.20;99.90;;;;;;5053071;28;20036;-83
2021/07/11 03:09:03;;;;;;;3.40;3.13;;;21.30;99.90;;;;;;5052071;28;20025;-83
2021/07/11 03:11:31;;;;;;;3.67;3.38;;;21.30;99.90;;;;;;5052058;28;20488;-83
2021/07/11 03:13:59;;;;;;;3.38;3.17;;;21.20;99.90;;;;;;5051973;28;20040;-83
2021/07/11 03:16:25;;;;;;;5.60;3.67;;;21.30;99.90;;;;;;5051858;28;20028;-83
2021/07/11 03:18:54;;;;;;;3.63;3.30;;;21.30;99.90;;;;;;5049953;28;20028;-82
2021/07/11 03:21:23;;;;;;;6.53;3.63;;;21.30;99.90;;;;;;5032212;28;20022;-82
2021/07/11 03:23:54;;;;;;;6.30;3.38;;;21.30;99.90;;;;;;5014020;28;20022;-83
2021/07/11 03:26:21;;;;;;;4.43;3.30;;;21.20;99.90;;;;;;5014130;28;20395;-83
2021/07/11 03:28:50;;;;;;;3.58;3.22;;;21.10;99.90;;;;;;5014110;28;20388;-83
2021/07/11 03:31:18;;;;;;;2.80;2.60;;;21.20;99.90;;;;;;5014005;28;20431;-83
2021/07/11 03:33:52;;;;;;;3.00;2.13;;;21.10;99.90;;;;;;5014235;28;20057;-83
2021/07/11 03:36:20;;;;;;;3.22;2.38;;;21.20;99.90;;;;;;5013935;28;20030;-83
2021/07/11 03:38:52;;;;;;;2.58;2.45;;;21.20;99.90;;;;;;5013783;28;20107;-83
2021/07/11 03:41:19;;;;;;;;;;;21.30;99.90;;;;;;5014467;28;20029;-83
2021/07/11 03:43:51;;;;;;;2.17;2.08;;;21.20;99.90;;;;;;5013974;28;19909;-83
2021/07/11 03:46:19;;;;;;;2.72;2.10;;;21.10;99.90;;;;;;5017932;28;20067;-83
2021/07/11 03:48:50;;;;;;;1.83;1.73;;;21.10;99.90;;;;;;5051445;28;20017;-83
2021/07/11 03:51:20;;;;;;;1.65;1.55;;;21.00;99.90;;;;;;5051385;28;20104;-83
2021/07/11 03:53:48;;;;;;;1.52;1.35;;;20.80;99.90;;;;;;5013875;28;20064;-83
2021/07/11 03:56:16;;;;;;;2.05;1.45;;;20.70;99.90;;;;;;5013658;28;20032;-83
2021/07/11 03:58:42;;;;;;;1.40;1.30;;;20.70;99.90;;;;;;5031642;28;20129;-83
2021/07/11 04:01:09;;;;;;;1.67;1.63;;;20.70;99.90;;;;;;5041024;28;20021;-83
2021/07/11 04:03:41;;;;;;;1.40;1.35;;;20.70;99.90;;;;;;5035925;28;20384;-83
2021/07/11 04:06:16;;;;;;;1.20;1.08;;;20.60;99.90;;;;;;5055029;28;20053;-83
2021/07/11 04:08:44;;;;;;;1.10;1.10;;;20.70;99.90;;;;;;5055314;28;20025;-83
2021/07/11 04:11:11;;;;;;;1.50;1.40;;;20.60;99.90;;;;;;5055182;28;20025;-83
2021/07/11 04:13:37;;;;;;;1.80;1.15;;;20.60;99.90;;;;;;5057326;28;20400;-83
2021/07/11 04:16:06;;;;;;;1.08;1.08;;;20.60;99.90;;;;;;5037219;28;20117;-80
2021/07/11 04:21:55;;;;;;;0.90;0.90;;;20.60;99.90;;;;;;5061078;28;20020;-83
2021/07/11 04:24:22;;;;;;;2.45;1.20;;;20.60;99.90;;;;;;5038413;28;20017;-83
2021/07/11 04:26:49;;;;;;;0.98;0.98;;;20.50;99.90;;;;;;5056474;28;20463;-83
2021/07/11 04:29:15;;;;;;;1.00;1.00;;;20.50;99.90;;;;;;5037268;28;20029;-83
2021/07/11 04:31:42;;;;;;;0.50;0.50;;;20.40;99.90;;;;;;5036984;28;20480;-82
2021/07/11 04:34:43;;;;;;;0.98;0.98;;;20.40;99.90;;;;;;5054742;28;20184;-83
2021/07/11 04:37:11;;;;;;;0.77;0.77;;;20.40;99.90;;;;;;5053249;28;20083;-83
2021/07/11 04:39:37;;;;;;;4.07;0.77;;;20.40;99.90;;;;;;5036812;28;20052;-83
2021/07/11 04:42:03;;;;;;;0.70;0.70;;;20.50;99.90;;;;;;5054346;28;20064;-83
2021/07/11 04:44:30;;;;;;;0.60;0.60;;;20.50;99.90;;;;;;5054536;28;20052;-83
2021/07/11 04:46:57;;;;;;;0.80;0.80;;;20.60;99.90;;;;;;5036409;28;20037;-84
2021/07/11 04:49:23;;;;;;;2.83;0.68;;;20.60;99.90;;;;;;5036805;28;20502;-83
2021/07/11 04:51:54;;;;;;;0.70;0.70;;;20.60;99.90;;;;;;5036464;28;20029;-83
2021/07/11 04:54:20;;;;;;;1.02;0.93;;;20.60;99.90;;;;;;5036624;28;20025;-83
2021/07/11 04:56:46;;;;;;;0.70;0.70;;;20.60;99.90;;;;;;5036273;28;20037;-83
2021/07/11 04:59:12;;;;;;;0.82;0.80;;;20.60;99.90;;;;;;5036582;28;20028;-83
2021/07/11 05:01:38;;;;;;;1.42;0.70;;;20.50;99.90;;;;;;5036268;28;20029;-83
2021/07/11 05:04:04;;;;;;;0.80;0.80;;;20.60;99.90;;;;;;5036403;28;20036;-83
2021/07/11 05:06:30;;;;;;;0.60;0.60;;;20.50;99.90;;;;;;5053983;28;20033;-83
2021/07/11 05:08:55;;;;;;;0.70;0.70;;;20.60;99.90;;;;;;5054568;28;20028;-84
2021/07/11 05:11:21;;;;;;;0.60;0.60;;;20.60;99.90;;;;;;5069297;28;20098;-83
2021/07/11 05:13:47;;;;;;;0.52;0.52;;;20.60;99.90;;;;;;5036004;28;20040;-83
2021/07/11 05:16:13;;;;;;;0.93;0.70;;;20.60;99.90;;;;;;5053199;28;20087;-83
2021/07/11 05:18:39;;;;;;;2.22;1.45;;;20.70;99.90;;;;;;5036211;28;20025;-83
2021/07/11 05:21:04;;;;;;;0.70;0.70;;;20.70;99.90;;;;;;5035580;28;20099;-83
2021/07/11 05:23:30;;;;;;;0.73;0.73;;;20.80;99.90;;;;;;5040749;28;20021;-83
2021/07/11 05:25:56;;;;;;;0.70;0.70;;;20.80;99.90;;;;;;5055686;28;20056;-84
2021/07/11 05:28:22;;;;;;;0.68;0.68;;;20.80;99.90;;;;;;5055997;28;20024;-84
2021/07/11 05:30:48;;;;;;;0.55;0.55;;;20.80;99.90;;;;;;5055784;28;20500;-83
2021/07/11 05:33:13;;;;;;;1.08;0.60;;;20.90;99.90;;;;;;5073744;28;20433;-83
2021/07/11 05:35:39;;;;;;;2.65;0.60;;;21.00;99.90;;;;;;5073764;28;20024;-84
2021/07/11 05:38:05;;;;;;;0.75;0.75;;;21.10;99.90;;;;;;5055254;28;20036;-84
2021/07/11 05:40:31;;;;;;;0.73;0.73;;;21.10;99.90;;;;;;5073704;28;20078;-84
2021/07/11 05:42:57;;;;;;;0.60;0.60;;;21.20;99.90;;;;;;5055559;28;20028;-84
2021/07/11 05:45:23;;;;;;;2.67;0.57;;;21.30;99.90;;;;;;5055335;28;20025;-84
2021/07/11 05:47:49;;;;;;;0.70;0.70;;;21.30;99.90;;;;;;5038791;28;20036;-84
2021/07/11 05:50:15;;;;;;;0.50;0.50;;;21.30;99.90;;;;;;5052256;28;20064;-83
2021/07/11 05:52:41;;;;;;;0.68;0.68;;;21.30;99.90;;;;;;5035465;28;20499;-83
2021/07/11 05:55:08;;;;;;;0.50;0.50;;;21.30;99.90;;;;;;5035593;28;20032;-83
2021/07/11 05:57:34;;;;;;;5.82;0.60;;;21.30;99.90;;;;;;5035019;28;20021;-84
2021/07/11 06:00:00;;;;;;;0.40;0.40;;;21.30;99.90;;;;;;5035345;28;20503;-84
2021/07/11 06:02:29;;;;;;;2.25;0.52;;;21.30;99.90;;;;;;5053098;28;20440;-84
2021/07/11 06:04:55;;;;;;;0.68;0.68;;;21.40;99.90;;;;;;5035007;28;20033;-84
2021/07/11 06:07:20;;;;;;;0.85;0.85;;;21.40;99.90;;;;;;5035275;28;20029;-83
2021/07/11 06:09:46;;;;;;;0.90;0.90;;;21.40;99.90;;;;;;5035111;28;20052;-83
2021/07/11 06:12:12;;;;;;;2.05;0.55;;;21.40;99.90;;;;;;5052851;28;20044;-83
2021/07/11 06:14:38;;;;;;;0.85;0.60;;;21.40;99.90;;;;;;5034701;28;20113;-84
2021/07/11 06:17:03;;;;;;;1.85;0.70;;;21.40;99.90;;;;;;5034955;28;20056;-84
2021/07/11 06:19:29;;;;;;;3.13;0.65;;;21.40;99.90;;;;;;5035035;28;20035;-83
2021/07/11 06:21:55;;;;;;;0.95;0.60;;;21.40;99.90;;;;;;5034622;28;20113;-84
2021/07/11 06:24:21;;;;;;;3.83;0.70;;;21.40;99.90;;;;;;5034719;28;20029;-84
2021/07/11 06:26:47;;;;;;;0.50;0.50;;;21.50;99.90;;;;;;5034376;28;20480;-84
2021/07/11 06:29:13;;;;;;;0.60;0.60;;;21.50;99.90;;;;;;5036041;28;20036;-83
2021/07/11 06:31:39;;;;;;;3.53;0.70;;;21.60;99.90;;;;;;5036171;28;20025;-83
2021/07/11 06:34:05;;;;;;;0.70;0.70;;;21.60;99.90;;;;;;5032841;28;20032;-81
2021/07/11 06:36:31;;;;;;;0.68;0.60;;;21.70;99.90;;;;;;5050579;28;20485;-82
2021/07/11 06:39:01;;;;;;;2.33;0.90;;;21.80;99.90;;;;;;5032630;28;20500;-82
2021/07/11 06:41:26;;;;;;;1.15;0.50;;;21.90;99.90;;;;;;5032623;28;20024;-82
2021/07/11 06:43:52;;;;;;;0.57;0.57;;;22.00;99.90;;;;;;5050231;28;20490;-81
2021/07/11 06:46:18;;;;;;;0.52;0.52;;;22.10;99.90;;;;;;5033662;28;20423;-82
2021/07/11 06:48:44;;;;;;;1.50;0.70;;;22.20;99.90;;;;;;5052189;28;20021;-81
2021/07/11 06:51:09;;;;;;;0.70;0.70;;;22.20;99.90;;;;;;5052169;28;20032;-82
2021/07/11 06:53:36;;;;;;;0.70;0.70;;;22.30;99.90;;;;;;5052489;28;20025;-82
2021/07/11 06:56:03;;;;;;;0.52;0.52;;;22.40;99.90;;;;;;5034279;28;20032;-82
2021/07/11 06:58:29;;;;;;;1.25;0.93;;;22.50;99.90;;;;;;5033987;28;20170;-82
2021/07/11 07:00:54;;;;;;;1.55;1.00;;;22.60;99.90;;;;;;5034307;28;20037;-82
2021/07/11 07:03:20;;;;;;;0.80;0.80;;;22.70;99.90;;;;;;5034105;28;20033;-82
2021/07/11 07:05:46;;;;;;;1.40;1.40;;;22.80;99.90;;;;;;5033912;28;20445;-81
2021/07/11 07:08:12;;;;;;;4.88;1.70;;;22.90;99.90;;;;;;5051984;28;20029;-82
2021/07/11 07:10:38;;;;;;;1.67;1.58;;;23.00;99.90;;;;;;5033841;28;20526;-82
2021/07/11 07:13:04;;;;;;;1.98;1.88;;;23.10;99.90;;;;;;5033908;28;20124;-81
2021/07/11 07:15:29;;;;;;;1.73;1.63;;;23.10;99.90;;;;;;5033954;28;20033;-81
2021/07/11 07:17:55;;;;;;;2.33;1.85;;;23.20;99.90;;;;;;5033647;28;20087;-82
2021/07/11 07:20:21;;;;;;;1.48;1.48;;;23.20;99.90;;;;;;5033446;28;20017;-81
2021/07/11 07:22:47;;;;;;;1.90;1.80;;;23.20;99.90;;;;;;5033683;28;20055;-81
2021/07/11 07:25:16;;;;;;;1.30;1.30;;;23.20;99.90;;;;;;5051446;28;20388;-82
2021/07/11 07:27:42;;;;;;;1.60;1.50;;;23.20;99.90;;;;;;5033694;28;20128;-82
2021/07/11 07:30:09;;;;;;;1.60;1.50;;;23.30;99.90;;;;;;5033788;28;20025;-82
2021/07/11 07:32:36;;;;;;;1.90;1.60;;;23.30;99.90;;;;;;5033653;28;20082;-82
2021/07/11 07:35:03;;;;;;;1.85;1.40;;;23.40;99.90;;;;;;5051381;28;20339;-82
2021/07/11 07:37:29;;;;;;;1.70;1.60;;;23.40;99.90;;;;;;5050990;28;20037;-82
2021/07/11 07:39:55;;;;;;;1.95;1.77;;;23.40;99.90;;;;;;5030122;28;20524;-82
2021/07/11 07:42:21;;;;;;;1.55;1.48;;;23.50;99.90;;;;;;5030126;28;20116;-82
2021/07/11 07:44:47;;;;;;;1.52;1.42;;;23.60;99.90;;;;;;5030038;28;20022;-82
2021/07/11 07:47:13;;;;;;;1.80;1.20;;;23.60;99.90;;;;;;5030378;28;20496;-82
2021/07/11 07:49:38;;;;;;;1.70;1.40;;;23.70;99.90;;;;;;5030156;28;20385;-82
2021/07/11 07:52:04;;;;;;;1.10;1.10;;;23.70;99.90;;;;;;5030214;28;20496;-82
2021/07/11 07:54:30;;;;;;;1.48;1.38;;;23.80;99.90;;;;;;5030053;28;20504;-82
2021/07/11 07:56:56;;;;;;;5.22;1.17;;;23.90;99.90;;;;;;5029998;28;20036;-82
2021/07/11 07:59:23;;;;;;;1.48;1.38;;;23.90;99.90;;;;;;5030038;28;20049;-82
2021/07/11 08:01:49;;;;;;;1.25;1.17;;;24.00;99.90;;;;;;5030094;28;20018;-82
2021/07/11 08:04:14;;;;;;;1.30;1.30;;;24.10;99.90;;;;;;5029813;28;20026;-82
2021/07/11 08:06:40;;;;;;;1.50;1.40;;;24.10;99.90;;;;;;5031333;28;20029;-82
2021/07/11 08:09:06;;;;;;;1.50;1.40;;;24.10;99.90;;;;;;5031274;28;20033;-82
2021/07/11 08:11:33;;;;;;;1.83;1.70;;;24.10;99.90;;;;;;5029882;28;20025;-82
2021/07/11 08:13:59;;;;;;;1.70;1.60;;;24.10;99.90;;;;;;5031214;28;20029;-82
2021/07/11 08:16:24;;;;;;;1.45;1.35;;;24.20;99.90;;;;;;5031068;28;20029;-82
2021/07/11 08:18:50;;;;;;;1.60;1.50;;;24.20;99.90;;;;;;5029920;28;20032;-82
2021/07/11 08:21:16;;;;;;;1.55;1.48;;;24.30;99.90;;;;;;5029897;28;20013;-82
2021/07/11 08:23:42;;;;;;;1.60;1.50;;;24.30;99.90;;;;;;5031147;28;20022;-82
2021/07/11 08:26:08;;;;;;;1.65;1.23;;;24.30;99.90;;;;;;5029597;28;20052;-82
2021/07/11 08:28:33;;;;;;;1.45;1.38;;;24.30;99.90;;;;;;5029911;28;20037;-82
2021/07/11 08:30:59;;;;;;;1.20;1.10;;;24.40;99.90;;;;;;5031100;28;20599;-82
2021/07/11 08:33:25;;;;;;;2.45;1.20;;;24.40;99.90;;;;;;5029599;28;20033;-81
2021/07/11 08:35:51;;;;;;;1.35;1.25;;;24.40;99.90;;;;;;5030953;28;20021;-83
2021/07/11 08:38:16;;;;;;;1.27;1.25;;;24.50;99.90;;;;;;5030924;28;20037;-83
2021/07/11 08:40:44;;;;;;;1.50;1.40;;;24.60;99.90;;;;;;5032961;28;20061;-83
2021/07/11 08:43:10;;;;;;;2.00;1.33;;;24.60;99.90;;;;;;5050827;28;20033;-83
2021/07/11 08:45:36;;;;;;;1.00;1.00;;;24.60;99.90;;;;;;5032989;28;20468;-83
2021/07/11 08:48:05;;;;;;;0.95;0.95;;;24.70;99.90;;;;;;5032708;28;20020;-83
2021/07/11 08:50:34;;;;;;;2.28;1.30;;;24.80;99.90;;;;;;5036678;28;20484;-83
2021/07/11 08:53:00;;;;;;;0.80;0.80;;;24.80;99.90;;;;;;5053893;28;20070;-83
2021/07/11 08:55:26;;;;;;;1.13;1.13;;;24.90;99.90;;;;;;5033315;28;20025;-83
2021/07/11 08:57:55;;;;;;;1.13;1.13;;;24.90;99.00;;;;;;5053903;28;20024;-83
2021/07/11 09:00:24;;;;;;;1.05;1.05;;;24.90;99.90;;;;;;5037507;28;20091;-83
2021/07/11 09:02:50;;;;;;;6.45;1.40;;;24.90;99.90;;;;;;5036594;28;20192;-83
2021/07/11 09:05:25;;;;;;;1.52;1.42;;;25.00;99.90;;;;;;5034043;28;20092;-83
2021/07/11 09:08:23;;;;;;;1.20;1.20;;;25.00;99.00;;;;;;5036529;28;20079;-83
2021/07/11 09:10:57;;;;;;;1.50;1.40;;;25.00;99.50;;;;;;5051894;28;20101;-83
2021/07/11 09:13:27;;;;;;;1.17;1.17;;;25.30;99.90;;;;;;5033073;28;20036;-82
2021/07/11 09:15:55;;;;;;;2.25;1.60;;;25.30;99.90;;;;;;5035281;28;20063;-83
2021/07/11 09:18:22;;;;;;;1.10;1.10;;;25.40;99.30;;;;;;5035386;28;20047;-82
2021/07/11 09:21:00;;;;;;;1.38;1.20;;;25.40;99.10;;;;;;5036994;28;20480;-82
2021/07/11 09:23:28;;;;;;;1.40;1.30;;;25.60;99.00;;;;;;5038282;28;20211;-82
2021/07/11 09:26:06;;;;;;;1.83;1.17;;;25.60;98.80;;;;;;5038852;28;20060;-82
2021/07/11 09:28:36;;;;;;;5.50;1.08;;;25.60;98.20;;;;;;5054206;28;20249;-82
2021/07/11 09:31:03;;;;;;;1.60;1.30;;;25.60;97.30;;;;;;5038553;28;20071;-82
2021/07/11 09:33:29;;;;;;;1.33;1.23;;;25.60;98.20;;;;;;5036058;28;20039;-82
2021/07/11 09:36:08;;;;;;;1.23;1.13;;;25.60;97.00;;;;;;5058213;28;20037;-82
2021/07/11 09:38:35;;;;;;;1.40;1.17;;;25.60;96.70;;;;;;5051818;28;20110;-82
2021/07/11 09:41:13;;;;;;;1.42;1.33;;;25.60;96.10;;;;;;5064738;28;20375;-82
2021/07/11 09:43:40;;;;;;;1.70;1.30;;;25.70;95.80;;;;;;5046322;28;20036;-81
2021/07/11 09:46:13;;;;;;;1.27;1.20;;;25.80;96.30;;;;;;5053475;28;20025;-82
2021/07/11 09:48:40;;;;;;;1.48;1.20;;;25.90;96.20;;;;;;5058335;28;20036;-81
2021/07/11 09:51:23;;;;;;;1.15;1.15;;;25.90;95.40;;;;;;5055091;28;20028;-82
2021/07/11 09:53:50;;;;;;;1.42;1.42;;;26.00;95.30;;;;;;5041842;28;20383;-81
2021/07/11 09:56:34;;;;;;;1.02;1.02;;;26.10;96.50;;;;;;5041153;28;20025;-81
2021/07/11 09:59:01;;;;;;;1.20;1.13;;;26.10;95.10;;;;;;5053448;28;20017;-81
2021/07/11 10:01:32;;;;;;;1.02;1.00;;;26.10;97.30;;;;;;5041287;28;20124;-81
2021/07/11 10:03:58;;;;;;;0.95;0.95;;;26.20;95.50;;;;;;5042329;28;20021;-81
2021/07/11 10:06:26;;;;;;;1.10;1.10;;;26.20;95.70;;;;;;5042381;28;20491;-81
2021/07/11 10:08:52;;;;;;;1.63;1.20;;;26.20;95.00;;;;;;5052542;28;20021;-81
2021/07/11 10:11:18;;;;;;;0.90;0.90;;;26.20;96.10;;;;;;5051870;28;20029;-81
2021/07/11 10:13:44;;;;;;;1.00;1.00;;;26.30;93.60;;;;;;5052183;28;20032;-81
2021/07/11 10:16:11;;;;;;;0.82;0.82;;;26.30;93.10;;;;;;5042874;28;20119;-81
2021/07/11 10:18:38;;;;;;;1.20;1.20;;;26.30;93.60;;;;;;5043080;28;20056;-81
2021/07/11 10:21:04;;;;;;;1.08;1.08;;;26.50;93.80;;;;;;5049793;28;20063;-81
2021/07/11 10:23:37;;;;;;;1.17;1.17;;;26.60;94.20;;;;;;5039391;28;20040;-80
2021/07/11 10:26:08;;;;;;;1.50;1.40;;;26.80;94.50;;;;;;5060149;28;20567;-80
2021/07/11 10:28:44;;;;;;;1.30;1.23;;;26.80;92.30;;;;;;5042835;28;20033;-80
2021/07/11 10:31:23;;;;;;;1.52;1.15;;;26.80;93.10;;;;;;5034373;28;20029;-80
2021/07/11 10:33:50;;;;;;;2.03;1.13;;;26.90;94.70;;;;;;5052824;28;20071;-80
2021/07/11 10:36:17;;;;;;;1.55;1.15;;;26.90;94.10;;;;;;5046139;28;20039;-80
2021/07/11 10:38:43;;;;;;;1.10;1.02;;;27.10;95.00;;;;;;5051012;28;20045;-80
2021/07/11 10:41:20;;;;;;;0.80;0.80;;;27.20;94.50;;;;;;5053751;28;20033;-80
2021/07/11 10:44:08;;;;;;;1.40;1.30;;;27.20;94.70;;;;;;5034777;28;20048;-80
2021/07/11 10:46:53;;;;;;;1.95;1.15;;;27.30;95.20;;;;;;5027485;28;20411;-80
2021/07/11 10:49:20;;;;;;;1.10;1.00;;;27.30;94.90;;;;;;5061803;28;20035;-79
2021/07/11 10:51:55;;;;;;;2.75;1.35;;;27.50;94.80;;;;;;5036972;28;20040;-80
2021/07/11 10:54:33;;;;;;;1.25;1.25;;;27.60;93.50;;;;;;5049722;28;20074;-80
2021/07/11 10:57:07;;;;;;;2.05;1.30;;;27.70;92.90;;;;;;5034165;28;20056;-80
2021/07/11 10:59:34;;;;;;;1.42;1.33;;;27.70;93.10;;;;;;5035775;28;20449;-79
2021/07/11 11:02:04;;;;;;;1.40;1.10;;;27.90;92.80;;;;;;5034435;28;20435;-80
2021/07/11 11:04:30;;;;;;;1.42;1.33;;;27.90;93.80;;;;;;5051663;28;20017;-80
2021/07/11 11:06:55;;;;;;;3.03;1.30;;;28.10;93.20;;;;;;5033845;28;20510;-81
2021/07/11 11:09:43;;;;;;;1.70;1.05;;;28.10;92.10;;;;;;5048187;28;20017;-80
2021/07/11 11:12:26;;;;;;;1.45;1.35;;;28.10;93.00;;;;;;5033182;28;20033;-80
2021/07/11 11:14:53;;;;;;;1.42;1.40;;;28.20;93.00;;;;;;5051617;28;20037;-80
2021/07/11 11:17:33;;;;;;;3.65;1.20;;;28.30;92.40;;;;;;5034800;28;20024;-79
2021/07/11 11:20:00;;;;;;;1.10;1.10;;;28.20;91.40;;;;;;5034362;28;20515;-80
2021/07/11 11:22:27;;;;;;;1.50;1.40;;;28.20;91.90;;;;;;5033680;28;20060;-79
2021/07/11 11:24:53;;;;;;;1.08;1.08;;;28.20;91.60;;;;;;5059565;28;20057;-79
2021/07/11 11:27:42;;;;;;;1.30;1.30;;;28.10;90.30;;;;;;5040641;28;20041;-79
2021/07/11 11:30:12;;;;;;;1.83;1.73;;;28.30;92.30;;;;;;5052932;28;20033;-79
2021/07/11 11:32:37;;;;;;;1.35;1.25;;;28.40;91.00;;;;;;5049579;28;20024;-79
2021/07/11 11:35:05;;;;;;;1.55;1.45;;;28.40;92.10;;;;;;5052098;28;20634;-78
2021/07/11 11:37:32;;;;;;;1.20;1.20;;;28.60;92.20;;;;;;5051760;28;20037;-79
2021/07/11 11:40:06;;;;;;;1.33;1.33;;;28.70;90.70;;;;;;5048502;28;20033;-78
2021/07/11 11:42:32;;;;;;;3.15;1.50;;;28.60;90.10;;;;;;5030728;28;20029;-79
2021/07/11 11:45:06;;;;;;;1.25;1.08;;;28.60;90.00;;;;;;5031203;28;20180;-79
2021/07/11 11:47:34;;;;;;;1.00;1.00;;;28.80;91.30;;;;;;5031183;28;20047;-78
2021/07/11 11:50:18;;;;;;;1.00;1.00;;;28.80;90.20;;;;;;5050311;28;20021;-78
2021/07/11 11:52:45;;;;;;;1.20;1.20;;;28.90;89.90;;;;;;5033479;28;20039;-78
2021/07/11 11:55:12;;;;;;;1.40;1.40;;;28.90;88.90;;;;;;5051633;28;20029;-78
2021/07/11 11:57:40;;;;;;;1.35;1.23;;;29.10;89.30;;;;;;5033193;28;20021;-78
2021/07/11 12:00:17;;;;;;;1.08;1.08;;;29.00;86.90;;;;;;5051336;28;20476;-79
2021/07/11 12:02:44;;;;;;;2.08;1.05;;;29.00;86.00;;;;;;5050581;28;20021;-79
2021/07/11 12:05:14;;;;;;;1.30;1.20;;;29.20;88.30;;;;;;5049808;28;20025;-78
2021/07/11 12:07:41;;;;;;;1.33;1.30;;;29.40;89.50;;;;;;5051729;28;20031;-78
2021/07/11 12:10:08;;;;;;;1.10;1.10;;;29.40;88.40;;;;;;5052180;28;20055;-78
2021/07/11 12:12:34;;;;;;;1.63;1.45;;;29.50;87.10;;;;;;5049064;28;20055;-78
2021/07/11 12:15:01;;;;;;;1.10;1.10;;;29.60;86.00;;;;;;5029962;28;20029;-78
2021/07/11 12:17:34;;;;;;;1.73;1.10;;;29.70;88.20;;;;;;5048893;28;20029;-78
2021/07/11 12:20:01;;;;;;;1.23;0.98;;;29.70;85.90;;;;;;5045888;28;20013;-78
2021/07/11 12:22:36;;;;;;;2.80;1.33;;;29.80;83.30;;;;;;5046614;28;20075;-78
2021/07/11 12:25:08;;;;;;;1.23;1.13;;;29.80;83.30;;;;;;5030436;28;20028;-78
2021/07/11 12:27:36;;;;;;;3.13;1.30;;;30.00;83.40;;;;;;5034346;28;20067;-78
2021/07/11 12:30:17;;;;;;;1.35;1.35;;;29.90;79.90;;;;;;5048419;28;20021;-77
2021/07/11 12:32:48;;;;;;;1.40;1.30;;;30.00;82.20;;;;;;5033919;28;20516;-78
2021/07/11 12:35:15;;;;;;;1.50;1.40;;;30.10;79.50;;;;;;5049201;28;20032;-78
2021/07/11 12:37:58;;;;;;;2.78;1.05;;;30.20;78.10;;;;;;5051724;28;20017;-78
2021/07/11 12:40:29;;;;;;;0.70;0.70;;;30.30;80.40;;;;;;5049282;28;20060;-78
2021/07/11 12:43:21;;;;;;;0.90;0.90;;;30.30;79.10;;;;;;5051213;28;20150;-78
2021/07/11 12:46:02;;;;;;;1.05;1.00;;;30.30;78.10;;;;;;5049925;28;20029;-78
2021/07/11 12:48:41;;;;;;;2.15;1.25;;;30.40;80.60;;;;;;5032701;28;20029;-77
2021/07/11 12:51:22;;;;;;;2.45;1.05;;;30.50;77.10;;;;;;5050408;28;20041;-77
2021/07/11 12:53:56;;;;;;;1.07;1.07;;;30.50;73.00;;;;;;5049744;28;20029;-78
2021/07/11 12:56:27;;;;;;;1.00;0.90;;;30.60;74.30;;;;;;5049926;28;20028;-78
2021/07/11 12:58:53;;;;;;;3.55;1.13;;;30.60;73.80;;;;;;5048561;28;20021;-78
2021/07/11 13:01:25;;;;;;;1.75;0.98;;;30.70;76.70;;;;;;5050360;28;20025;-77